This is the latest recevied weather packets stored in our database for station/object KG6LPP. If no packets are shown the sender has not sent any weather packets the latest 10 day(s).
| Time | Temp. | Humidity | Pressure | Rain* | Wind** | Luminosity | Snow |
|---|---|---|---|---|---|---|---|
| 1778074216 | 4.44° C | 75% | 1008 hPa | 0 mm | - | 65 W/m² | - |
| 1778073314 | 3.89° C | 77% | 1007.6 hPa | 0 mm | - | 39 W/m² | - |
| 1778064366 | 3.33° C | 84% | 1005.9 hPa | 0 mm | - | 0 W/m² | - |
| 1778062555 | 3.89° C | 83% | 1005.7 hPa | 0 mm | - | 0 W/m² | - |
| 1778050886 | 7.22° C | 68% | 1004.4 hPa | 0 mm | - | 0 W/m² | - |
| 1778047258 | 7.22° C | 73% | 1004.1 hPa | 0 mm | - | 0 W/m² | - |
| 1778029223 | 11.67° C | 60% | 999.4 hPa | 0 mm | - | 26 W/m² | - |
| 1778025644 | 12.78° C | 56% | 998.8 hPa | 0 mm | - | 40 W/m² | - |
| 1778024738 | 12.78° C | 54% | 998.5 hPa | 0.25 mm | - | 72 W/m² | - |
| 1778018409 | 11.67° C | 69% | 999.1 hPa | 0 mm | - | 116 W/m² | - |
| 1778003102 | 13.89° C | 51% | 999.3 hPa | 0 mm | - | 292 W/m² | - |
| 1777986948 | 10° C | 57% | 999.8 hPa | 0 mm | - | 26 W/m² | - |
| 1777986054 | 9.44° C | 59% | 999.7 hPa | 0 mm | - | 23 W/m² | - |
| 1777984305 | 10° C | 54% | 999.8 hPa | 0 mm | - | 0 W/m² | - |
| 1777975242 | 11.67° C | 35% | 999.2 hPa | 0 mm | - | 0 W/m² | - |
| 1777974332 | 11.67° C | 35% | 998.7 hPa | 0 mm | - | 0 W/m² | - |
| 1777973491 | 11.67° C | 36% | 998.5 hPa | 0 mm | - | 0 W/m² | - |
| 1777970730 | 12.22° C | 40% | 999.2 hPa | 0 mm | - | 0 W/m² | - |
| 1777968034 | 12.78° C | 40% | 999.4 hPa | 0 mm | - | 0 W/m² | - |
| 1777966281 | 13.33° C | 36% | 999.4 hPa | 0 mm | - | 0 W/m² | - |
| 1777960814 | 14.44° C | 31% | 999.5 hPa | 0 mm | - | 0 W/m² | - |
| 1777956312 | 15.56° C | 30% | 999.7 hPa | 0 mm | - | 0 W/m² | - |
| 1777949175 | 17.22° C | 26% | 999.5 hPa | 0 mm | - | 0 W/m² | - |
| 1777948269 | 17.22° C | 26% | 999.4 hPa | 0 mm | - | 0 W/m² | - |
| 1777940151 | 18.33° C | 20% | 999 hPa | 0 mm | - | 40 W/m² | - |
* Rain latest hour (hover to see other rain measurements)
** Current wind speed in m/s (hover to see current wind gust speed)